Terminal Aerodrome Forecast
Issued by NWS

Home | Current Version | Previous Version | Text Only | Print | Product List | Glossary On
Versions: 1 2 3 4 5 6 7 8 9 10 11 12 13
000
FTUS42 KGSP 192338
TAFAND
TAF
KAND 192338Z 2000/2024 00000KT P6SM FEW050 BKN250
      TEMPO 2010/2012 4SM BR
     FM201400 26004KT P6SM FEW080=

USA.gov is the U.S. government's official web portal to all federal, state and local government web resources and services.